Maytown, Kentucky
Current Conditions -  °F | °C
As of 11:53 AM on Saturday 27 Dec 2014 (Local Time) from KJKL Reporting Station
Clear Clear  
Wind Chill: 54°   Ceiling: Unl
Heat Index: 54°   Visibility: 10mi
Dew Point: 30°   Wind: 0mph
Humidity: 40%   Direction: NA
Pressure: 30.23"   Gusts: NA
Location:  37.7524°N, 83.5047°W
Report Text: KJKL 271653Z AUTO 00000KT 10SM CLR 12/M01 A3023 RMK AO2 SLP234 T01221011 $
Loading
Personal Weather Stations






























Interactive Weather Map New forecast layout! Learn more

10-Day Weather Forecast

Advertisements
Track Severe Weather on mobile